createdAt,value
2022-11-03T02:05:29.264Z,1.80
2022-11-03T02:10:37.771Z,1.45
2022-11-03T02:15:46.517Z,1.50
2022-11-03T02:21:06.589Z,1.48
2022-11-03T02:26:19.102Z,1.55
2022-11-03T02:31:34.985Z,1.50
2022-11-03T02:36:49.002Z,1.30
2022-11-03T02:42:01.710Z,1.50
2022-11-03T02:47:13.445Z,1.65
2022-11-03T02:52:39.193Z,1.48
2022-11-03T02:57:53.762Z,1.20
2022-11-03T03:03:08.275Z,1.52
2022-11-03T03:08:17.909Z,1.40
2022-11-03T03:13:28.384Z,1.30
2022-11-03T03:24:05.451Z,1.75
2022-11-03T03:29:20.317Z,1.60
2022-11-03T03:34:35.060Z,1.00
2022-11-03T03:39:47.173Z,1.27
2022-11-03T03:44:58.716Z,1.08
2022-11-03T03:50:06.822Z,1.45
2022-11-03T03:55:20.259Z,2.10
2022-11-03T04:00:30.467Z,1.90
2022-11-03T04:05:38.116Z,1.70
2022-11-03T04:11:07.235Z,1.50
2022-11-03T04:16:29.887Z,1.02
2022-11-03T04:21:49.874Z,1.73
2022-11-03T04:27:09.030Z,1.40
2022-11-03T04:32:20.787Z,2.03
2022-11-03T04:37:30.313Z,1.33
2022-11-03T04:42:38.392Z,1.88
2022-11-03T04:47:48.496Z,1.42
2022-11-03T04:52:59.945Z,1.40
2022-11-03T04:58:16.096Z,1.75
2022-11-03T05:03:30.076Z,1.58
2022-11-03T05:08:37.657Z,1.75
2022-11-03T05:13:45.314Z,1.88
2022-11-03T05:18:55.648Z,1.48
2022-11-03T05:24:06.387Z,1.63
2022-11-03T05:34:36.924Z,1.00
2022-11-03T05:39:47.812Z,1.40
2022-11-03T05:44:55.493Z,1.75
2022-11-03T05:50:18.820Z,2.17
2022-11-03T05:55:30.862Z,2.38
2022-11-03T06:00:48.121Z,2.13
2022-11-03T06:06:02.122Z,3.40
2022-11-03T06:11:21.591Z,2.13
2022-11-03T06:16:41.497Z,2.67
2022-11-03T06:21:52.861Z,2.90
2022-11-03T06:27:01.027Z,2.25
2022-11-03T06:32:15.374Z,2.13
2022-11-03T06:37:27.696Z,1.75
2022-11-03T06:42:35.854Z,1.48
2022-11-03T06:47:43.696Z,2.42
2022-11-03T06:52:55.644Z,2.50
2022-11-03T06:58:07.818Z,1.85
2022-11-03T07:03:20.883Z,1.80
2022-11-03T07:08:33.746Z,2.40
2022-11-03T07:13:41.440Z,2.47
2022-11-03T07:18:49.525Z,3.30
2022-11-03T07:24:01.904Z,2.53
2022-11-03T07:29:13.344Z,2.63
2022-11-03T07:34:26.876Z,2.80
2022-11-03T07:39:42.229Z,2.58
2022-11-03T07:44:50.708Z,1.95
2022-11-03T07:49:58.992Z,2.42
2022-11-03T07:55:16.222Z,2.92
2022-11-03T08:00:24.027Z,2.58
2022-11-03T08:05:31.686Z,2.72
2022-11-03T08:10:42.364Z,2.70
2022-11-03T08:15:51.807Z,2.55
2022-11-03T08:20:59.436Z,2.75
2022-11-03T08:26:12.838Z,2.47
2022-11-03T08:31:20.567Z,2.33
2022-11-03T08:36:28.157Z,2.20
2022-11-03T08:41:38.341Z,1.98
2022-11-03T08:46:45.880Z,1.87
2022-11-03T08:51:53.455Z,1.80
2022-11-03T08:57:03.693Z,2.58
2022-11-03T09:02:11.547Z,2.30
2022-11-03T09:07:19.291Z,2.63
2022-11-03T09:12:29.395Z,2.60
2022-11-03T09:17:38.538Z,1.58
2022-11-03T09:22:48.621Z,2.58
2022-11-03T09:27:59.652Z,2.58
2022-11-03T09:38:15.924Z,2.50
2022-11-03T09:43:26.252Z,1.90
2022-11-03T09:48:34.715Z,2.67
2022-11-03T09:53:42.747Z,3.03
2022-11-03T09:58:54.792Z,2.67
2022-11-03T10:04:03.724Z,2.55
2022-11-03T10:09:17.520Z,2.85
2022-11-03T10:14:27.702Z,3.33
2022-11-03T10:19:38.724Z,2.72
2022-11-03T10:24:46.277Z,2.97
2022-11-03T10:30:14.435Z,2.70
2022-11-03T10:35:37.972Z,2.72
2022-11-03T10:40:48.139Z,2.38
2022-11-03T10:46:29.698Z,2.67
2022-11-03T10:51:44.932Z,2.67
2022-11-03T10:56:53.929Z,3.00
2022-11-03T11:02:05.560Z,2.97
2022-11-03T11:07:23.892Z,2.65
2022-11-03T11:12:31.451Z,2.30
2022-11-03T11:17:50.168Z,2.05
2022-11-03T11:22:57.685Z,1.90
2022-11-03T11:28:14.939Z,1.88
2022-11-03T11:33:29.160Z,2.55
2022-11-03T11:39:09.198Z,2.70
2022-11-03T11:44:49.972Z,2.55
2022-11-03T11:50:19.116Z,2.40
2022-11-03T11:55:34.206Z,3.10
2022-11-03T12:00:54.187Z,2.92
2022-11-03T12:06:04.870Z,2.25
2022-11-03T12:11:16.754Z,2.58
2022-11-03T12:16:38.275Z,4.05
2022-11-03T12:21:52.738Z,2.38
2022-11-03T12:27:00.964Z,1.80
2022-11-03T12:32:25.583Z,1.95
2022-11-03T12:37:39.958Z,1.85
2022-11-03T12:42:47.602Z,1.42
2022-11-03T12:47:55.226Z,1.60
2022-11-03T12:53:06.907Z,1.88
2022-11-03T12:58:17.964Z,2.05
2022-11-03T13:03:25.559Z,1.70
2022-11-03T13:08:36.205Z,2.00
2022-11-03T13:13:44.476Z,1.77
2022-11-03T13:18:52.211Z,2.20
2022-11-03T13:24:02.335Z,2.00
2022-11-03T13:29:10.543Z,2.33
2022-11-03T13:34:18.100Z,3.00
2022-11-03T13:39:28.395Z,5.18
2022-11-03T13:44:35.969Z,6.90
2022-11-03T13:50:12.200Z,5.18
2022-11-03T14:00:43.677Z,8.20
2022-11-03T14:05:51.242Z,6.47
2022-11-03T14:11:21.358Z,4.22
2022-11-03T14:16:33.478Z,3.65
2022-11-03T14:21:42.870Z,3.28
2022-11-03T14:26:52.983Z,2.65
2022-11-03T14:32:00.616Z,2.72
2022-11-03T14:37:09.036Z,1.77
2022-11-03T14:42:19.256Z,2.30
2022-11-03T14:47:26.813Z,2.30
2022-11-03T14:52:34.292Z,1.85
2022-11-03T14:57:44.373Z,1.83
2022-11-03T15:02:51.900Z,2.30
2022-11-03T15:07:59.443Z,2.70
2022-11-03T15:13:09.989Z,2.90
2022-11-03T15:18:19.152Z,2.10
2022-11-03T15:28:56.930Z,2.30
2022-11-03T15:34:07.752Z,1.90
2022-11-03T15:39:17.940Z,2.03
2022-11-03T15:44:28.098Z,2.05
2022-11-03T15:49:35.841Z,4.38
2022-11-03T15:54:43.360Z,3.45
2022-11-03T15:59:55.353Z,2.80
2022-11-03T16:05:05.403Z,2.53
2022-11-03T16:10:13.060Z,1.83
2022-11-03T16:15:23.171Z,2.30
2022-11-03T16:20:30.760Z,2.15
2022-11-03T16:25:38.284Z,2.30
2022-11-03T16:30:53.839Z,2.30
2022-11-03T16:36:01.796Z,2.42
2022-11-03T16:41:10.284Z,2.22
2022-11-03T16:46:20.368Z,2.75
2022-11-03T16:51:28.295Z,3.05
2022-11-03T16:56:36.194Z,2.80
2022-11-03T17:01:46.505Z,2.90
2022-11-03T17:06:54.131Z,3.40
2022-11-03T17:12:01.824Z,3.50
2022-11-03T17:17:11.996Z,2.47
2022-11-03T17:22:20.403Z,4.07
2022-11-03T17:27:32.432Z,4.65
2022-11-03T17:32:44.702Z,3.53
2022-11-03T17:37:53.027Z,3.47
2022-11-03T17:43:01.011Z,5.22
2022-11-03T17:48:11.769Z,5.40
2022-11-03T17:53:23.555Z,4.65
2022-11-03T17:58:34.418Z,3.25
2022-11-03T18:03:44.848Z,3.05
2022-11-03T18:08:52.651Z,3.67
2022-11-03T18:14:00.719Z,6.22
2022-11-03T18:19:13.930Z,5.15
2022-11-03T18:24:22.919Z,4.10
2022-11-03T18:29:30.413Z,5.88
2022-11-03T18:34:41.934Z,4.47
2022-11-03T18:39:49.582Z,4.85
2022-11-03T18:45:01.488Z,4.97
2022-11-03T18:50:17.110Z,4.60
2022-11-03T18:55:24.762Z,4.20
2022-11-03T19:00:32.765Z,4.13
2022-11-03T19:05:42.891Z,6.68
2022-11-03T19:10:51.124Z,5.43
2022-11-03T19:15:59.604Z,4.85
2022-11-03T19:21:14.754Z,4.78
2022-11-03T19:26:25.992Z,3.17
2022-11-03T19:31:37.513Z,4.00
2022-11-03T19:36:49.139Z,2.90
2022-11-03T19:42:09.105Z,3.13
2022-11-03T19:52:36.896Z,3.15
2022-11-03T19:57:44.404Z,3.35
2022-11-03T20:02:51.921Z,3.08
2022-11-03T20:08:05.388Z,2.90
2022-11-03T20:13:16.563Z,2.80
2022-11-03T20:18:24.076Z,3.08
2022-11-03T20:23:39.346Z,2.85
2022-11-03T20:28:46.987Z,3.00
2022-11-03T20:33:54.488Z,2.70
2022-11-03T20:39:04.865Z,2.70
2022-11-03T20:44:14.481Z,2.83
2022-11-03T20:49:21.970Z,3.53
2022-11-03T20:54:33.271Z,2.75
2022-11-03T20:59:41.376Z,3.58
2022-11-03T21:04:48.935Z,3.00
2022-11-03T21:09:59.043Z,3.42
2022-11-03T21:15:34.544Z,2.92
2022-11-03T21:20:42.057Z,2.95
2022-11-03T21:25:52.648Z,3.58
2022-11-03T21:31:00.218Z,2.75
2022-11-03T21:36:08.569Z,3.08
2022-11-03T21:41:31.151Z,3.15
2022-11-03T21:46:43.615Z,3.08
2022-11-03T21:51:51.109Z,2.90
2022-11-03T21:57:01.208Z,2.60
2022-11-03T22:02:09.904Z,2.40
2022-11-03T22:07:17.394Z,2.33
2022-11-03T22:12:27.460Z,2.85
2022-11-03T22:17:34.979Z,2.75
2022-11-03T22:22:54.937Z,2.72
2022-11-03T22:28:07.824Z,2.80
2022-11-03T22:33:18.558Z,2.70
2022-11-03T22:38:46.143Z,2.40
2022-11-03T22:44:08.691Z,2.85
2022-11-03T22:49:16.172Z,1.95
2022-11-03T22:54:23.798Z,2.30
2022-11-03T22:59:33.924Z,1.40
2022-11-03T23:04:41.448Z,1.60
2022-11-03T23:09:48.970Z,1.00
2022-11-03T23:15:11.546Z,1.00
2022-11-03T23:20:31.561Z,0.93
2022-11-03T23:25:39.037Z,0.90
2022-11-03T23:30:49.113Z,0.80
2022-11-03T23:35:56.588Z,0.73
2022-11-03T23:41:04.987Z,0.90
2022-11-03T23:46:29.494Z,0.90
2022-11-03T23:51:38.344Z,0.90
2022-11-03T23:57:00.229Z,0.75
